sensor_id;sensor_type;location;lat;lon;timestamp;P1;durP1;ratioP1;P2;durP2;ratioP2
67074;SDS011;53990;50.334;18.640;2022-07-01T00:00:18;25.90;;;22.80;;
67074;SDS011;53990;50.334;18.640;2022-07-01T00:03:01;27.50;;;22.70;;
67074;SDS011;53990;50.334;18.640;2022-07-01T00:05:28;25.20;;;22.20;;
67074;SDS011;53990;50.334;18.640;2022-07-01T00:07:55;26.30;;;23.30;;
67074;SDS011;53990;50.334;18.640;2022-07-01T00:10:21;24.60;;;21.60;;
67074;SDS011;53990;50.334;18.640;2022-07-01T00:12:48;24.10;;;21.00;;
67074;SDS011;53990;50.334;18.640;2022-07-01T00:15:15;25.10;;;22.10;;
67074;SDS011;53990;50.334;18.640;2022-07-01T00:17:41;27.60;;;23.20;;
67074;SDS011;53990;50.334;18.640;2022-07-01T00:20:10;30.40;;;23.10;;
67074;SDS011;53990;50.334;18.640;2022-07-01T00:22:37;28.80;;;24.90;;
67074;SDS011;53990;50.334;18.640;2022-07-01T00:25:03;26.90;;;24.00;;
67074;SDS011;53990;50.334;18.640;2022-07-01T00:27:30;28.60;;;24.50;;
67074;SDS011;53990;50.334;18.640;2022-07-01T00:29:57;32.30;;;26.00;;
67074;SDS011;53990;50.334;18.640;2022-07-01T00:32:23;27.60;;;24.60;;
67074;SDS011;53990;50.334;18.640;2022-07-01T00:34:50;29.60;;;25.20;;
67074;SDS011;53990;50.334;18.640;2022-07-01T00:37:16;30.10;;;25.50;;
67074;SDS011;53990;50.334;18.640;2022-07-01T00:39:43;30.70;;;25.80;;
67074;SDS011;53990;50.334;18.640;2022-07-01T00:42:09;30.80;;;24.40;;
67074;SDS011;53990;50.334;18.640;2022-07-01T00:44:36;26.90;;;23.90;;
67074;SDS011;53990;50.334;18.640;2022-07-01T00:47:08;27.80;;;24.10;;
67074;SDS011;53990;50.334;18.640;2022-07-01T00:49:36;30.10;;;24.80;;
67074;SDS011;53990;50.334;18.640;2022-07-01T00:52:04;29.30;;;24.30;;
67074;SDS011;53990;50.334;18.640;2022-07-01T00:54:35;27.90;;;24.50;;
67074;SDS011;53990;50.334;18.640;2022-07-01T00:57:09;27.80;;;24.80;;
67074;SDS011;53990;50.334;18.640;2022-07-01T00:59:37;31.20;;;26.00;;
67074;SDS011;53990;50.334;18.640;2022-07-01T01:02:05;33.20;;;27.60;;
67074;SDS011;53990;50.334;18.640;2022-07-01T01:04:32;33.40;;;27.50;;
67074;SDS011;53990;50.334;18.640;2022-07-01T01:07:02;31.60;;;26.10;;
67074;SDS011;53990;50.334;18.640;2022-07-01T01:09:29;32.50;;;28.50;;
67074;SDS011;53990;50.334;18.640;2022-07-01T01:12:00;34.50;;;27.00;;
67074;SDS011;53990;50.334;18.640;2022-07-01T01:14:27;33.10;;;26.40;;
67074;SDS011;53990;50.334;18.640;2022-07-01T01:16:54;33.60;;;27.40;;
67074;SDS011;53990;50.334;18.640;2022-07-01T01:19:20;34.20;;;28.40;;
67074;SDS011;53990;50.334;18.640;2022-07-01T01:21:47;35.40;;;28.00;;
67074;SDS011;53990;50.334;18.640;2022-07-01T01:24:13;33.10;;;27.90;;
67074;SDS011;53990;50.334;18.640;2022-07-01T01:26:40;36.40;;;28.70;;
67074;SDS011;53990;50.334;18.640;2022-07-01T01:29:06;34.90;;;28.40;;
67074;SDS011;53990;50.334;18.640;2022-07-01T01:31:33;32.30;;;28.70;;
67074;SDS011;53990;50.334;18.640;2022-07-01T01:34:00;31.40;;;27.70;;
67074;SDS011;53990;50.334;18.640;2022-07-01T01:36:27;34.30;;;28.10;;
67074;SDS011;53990;50.334;18.640;2022-07-01T01:38:53;34.20;;;28.10;;
67074;SDS011;53990;50.334;18.640;2022-07-01T01:41:23;32.10;;;28.70;;
67074;SDS011;53990;50.334;18.640;2022-07-01T01:43:50;34.30;;;29.30;;
67074;SDS011;53990;50.334;18.640;2022-07-01T01:46:16;35.30;;;29.70;;
67074;SDS011;53990;50.334;18.640;2022-07-01T01:48:43;32.30;;;28.60;;
67074;SDS011;53990;50.334;18.640;2022-07-01T01:51:09;35.00;;;28.60;;
67074;SDS011;53990;50.334;18.640;2022-07-01T01:53:36;32.60;;;29.20;;
67074;SDS011;53990;50.334;18.640;2022-07-01T01:56:03;36.00;;;30.40;;
67074;SDS011;53990;50.334;18.640;2022-07-01T01:58:29;33.90;;;29.80;;
67074;SDS011;53990;50.334;18.640;2022-07-01T02:00:56;38.00;;;30.40;;
67074;SDS011;53990;50.334;18.640;2022-07-01T02:03:23;36.50;;;29.30;;
67074;SDS011;53990;50.334;18.640;2022-07-01T02:05:50;39.90;;;29.90;;
67074;SDS011;53990;50.334;18.640;2022-07-01T02:08:16;33.20;;;29.10;;
67074;SDS011;53990;50.334;18.640;2022-07-01T02:10:43;36.00;;;27.60;;
67074;SDS011;53990;50.334;18.640;2022-07-01T02:13:09;31.40;;;27.40;;
67074;SDS011;53990;50.334;18.640;2022-07-01T02:15:36;32.30;;;28.30;;
67074;SDS011;53990;50.334;18.640;2022-07-01T02:18:03;32.70;;;28.50;;
67074;SDS011;53990;50.334;18.640;2022-07-01T02:20:29;33.70;;;28.50;;
67074;SDS011;53990;50.334;18.640;2022-07-01T02:22:56;37.60;;;30.20;;
67074;SDS011;53990;50.334;18.640;2022-07-01T02:25:22;32.10;;;28.40;;
67074;SDS011;53990;50.334;18.640;2022-07-01T02:27:48;35.40;;;30.40;;
67074;SDS011;53990;50.334;18.640;2022-07-01T02:30:15;38.40;;;31.20;;
67074;SDS011;53990;50.334;18.640;2022-07-01T02:32:42;37.00;;;32.10;;
67074;SDS011;53990;50.334;18.640;2022-07-01T02:35:09;36.90;;;31.60;;
67074;SDS011;53990;50.334;18.640;2022-07-01T02:37:36;32.80;;;29.10;;
67074;SDS011;53990;50.334;18.640;2022-07-01T02:40:04;31.00;;;26.90;;
67074;SDS011;53990;50.334;18.640;2022-07-01T02:42:31;31.10;;;27.40;;
67074;SDS011;53990;50.334;18.640;2022-07-01T02:45:03;31.40;;;26.40;;
67074;SDS011;53990;50.334;18.640;2022-07-01T02:47:34;28.70;;;25.60;;
67074;SDS011;53990;50.334;18.640;2022-07-01T02:50:02;28.00;;;24.30;;
67074;SDS011;53990;50.334;18.640;2022-07-01T02:52:28;28.20;;;24.10;;
67074;SDS011;53990;50.334;18.640;2022-07-01T02:54:56;29.00;;;24.80;;
67074;SDS011;53990;50.334;18.640;2022-07-01T02:57:22;27.90;;;24.10;;
67074;SDS011;53990;50.334;18.640;2022-07-01T02:59:49;29.30;;;23.30;;
67074;SDS011;53990;50.334;18.640;2022-07-01T03:02:20;27.50;;;23.80;;
67074;SDS011;53990;50.334;18.640;2022-07-01T03:04:48;28.10;;;23.20;;
67074;SDS011;53990;50.334;18.640;2022-07-01T03:07:16;27.60;;;21.90;;
67074;SDS011;53990;50.334;18.640;2022-07-01T03:09:43;25.70;;;22.20;;
67074;SDS011;53990;50.334;18.640;2022-07-01T03:12:11;29.00;;;22.30;;
67074;SDS011;53990;50.334;18.640;2022-07-01T03:15:04;29.90;;;23.60;;
67074;SDS011;53990;50.334;18.640;2022-07-01T03:17:32;25.30;;;22.20;;
67074;SDS011;53990;50.334;18.640;2022-07-01T03:20:00;27.60;;;21.10;;
67074;SDS011;53990;50.334;18.640;2022-07-01T03:22:30;25.70;;;20.70;;
67074;SDS011;53990;50.334;18.640;2022-07-01T03:24:57;25.80;;;21.60;;
67074;SDS011;53990;50.334;18.640;2022-07-01T03:27:25;24.00;;;21.00;;
67074;SDS011;53990;50.334;18.640;2022-07-01T03:29:51;27.40;;;22.20;;
67074;SDS011;53990;50.334;18.640;2022-07-01T03:32:18;24.30;;;20.80;;
67074;SDS011;53990;50.334;18.640;2022-07-01T03:34:46;24.50;;;21.90;;
67074;SDS011;53990;50.334;18.640;2022-07-01T03:37:14;24.70;;;21.50;;
67074;SDS011;53990;50.334;18.640;2022-07-01T03:39:42;29.10;;;22.20;;
67074;SDS011;53990;50.334;18.640;2022-07-01T03:42:09;26.40;;;20.90;;
67074;SDS011;53990;50.334;18.640;2022-07-01T03:44:36;26.10;;;21.30;;
67074;SDS011;53990;50.334;18.640;2022-07-01T03:47:04;24.70;;;21.00;;
67074;SDS011;53990;50.334;18.640;2022-07-01T03:49:34;25.60;;;21.00;;
67074;SDS011;53990;50.334;18.640;2022-07-01T03:52:02;22.20;;;19.90;;
67074;SDS011;53990;50.334;18.640;2022-07-01T03:54:29;25.80;;;19.80;;
67074;SDS011;53990;50.334;18.640;2022-07-01T03:56:57;24.70;;;22.00;;
67074;SDS011;53990;50.334;18.640;2022-07-01T03:59:25;25.60;;;22.30;;
67074;SDS011;53990;50.334;18.640;2022-07-01T04:01:55;27.30;;;23.60;;
67074;SDS011;53990;50.334;18.640;2022-07-01T04:04:23;29.30;;;22.70;;
67074;SDS011;53990;50.334;18.640;2022-07-01T04:06:50;30.40;;;24.30;;
67074;SDS011;53990;50.334;18.640;2022-07-01T04:09:17;30.80;;;25.60;;
67074;SDS011;53990;50.334;18.640;2022-07-01T04:11:46;33.00;;;24.80;;
67074;SDS011;53990;50.334;18.640;2022-07-01T04:14:14;29.30;;;24.90;;
67074;SDS011;53990;50.334;18.640;2022-07-01T04:16:41;37.70;;;26.30;;
67074;SDS011;53990;50.334;18.640;2022-07-01T04:19:09;32.10;;;24.50;;
67074;SDS011;53990;50.334;18.640;2022-07-01T04:21:38;29.40;;;25.40;;
67074;SDS011;53990;50.334;18.640;2022-07-01T04:24:24;33.20;;;24.10;;
67074;SDS011;53990;50.334;18.640;2022-07-01T04:26:51;32.40;;;24.40;;
67074;SDS011;53990;50.334;18.640;2022-07-01T04:29:18;27.90;;;24.50;;
67074;SDS011;53990;50.334;18.640;2022-07-01T04:31:45;30.50;;;24.50;;
67074;SDS011;53990;50.334;18.640;2022-07-01T04:34:12;26.70;;;23.70;;
67074;SDS011;53990;50.334;18.640;2022-07-01T04:36:39;31.40;;;25.80;;
67074;SDS011;53990;50.334;18.640;2022-07-01T04:39:06;33.10;;;26.60;;
67074;SDS011;53990;50.334;18.640;2022-07-01T04:41:33;31.40;;;27.00;;
67074;SDS011;53990;50.334;18.640;2022-07-01T04:44:18;35.20;;;26.10;;
67074;SDS011;53990;50.334;18.640;2022-07-01T04:46:45;33.80;;;26.60;;
67074;SDS011;53990;50.334;18.640;2022-07-01T04:49:12;33.70;;;26.30;;
67074;SDS011;53990;50.334;18.640;2022-07-01T04:51:38;31.90;;;25.90;;
67074;SDS011;53990;50.334;18.640;2022-07-01T04:54:05;30.60;;;25.80;;
67074;SDS011;53990;50.334;18.640;2022-07-01T04:56:33;30.60;;;26.50;;
67074;SDS011;53990;50.334;18.640;2022-07-01T04:59:00;30.70;;;26.00;;
67074;SDS011;53990;50.334;18.640;2022-07-01T05:01:27;30.30;;;24.90;;
67074;SDS011;53990;50.334;18.640;2022-07-01T05:03:55;26.60;;;23.60;;
67074;SDS011;53990;50.334;18.640;2022-07-01T05:06:22;31.00;;;24.40;;
67074;SDS011;53990;50.334;18.640;2022-07-01T05:08:49;29.20;;;24.90;;
67074;SDS011;53990;50.334;18.640;2022-07-01T05:11:15;35.10;;;28.70;;
67074;SDS011;53990;50.334;18.640;2022-07-01T05:13:42;31.10;;;25.20;;
67074;SDS011;53990;50.334;18.640;2022-07-01T05:16:08;30.70;;;24.60;;
67074;SDS011;53990;50.334;18.640;2022-07-01T05:18:37;29.00;;;25.20;;
67074;SDS011;53990;50.334;18.640;2022-07-01T05:21:22;30.40;;;24.20;;
67074;SDS011;53990;50.334;18.640;2022-07-01T05:24:08;29.30;;;25.30;;
67074;SDS011;53990;50.334;18.640;2022-07-01T05:26:35;32.40;;;24.40;;
67074;SDS011;53990;50.334;18.640;2022-07-01T05:29:01;31.60;;;25.60;;
67074;SDS011;53990;50.334;18.640;2022-07-01T05:31:28;27.40;;;23.90;;
67074;SDS011;53990;50.334;18.640;2022-07-01T05:33:58;26.60;;;22.60;;
67074;SDS011;53990;50.334;18.640;2022-07-01T05:36:49;35.00;;;28.50;;
67074;SDS011;53990;50.334;18.640;2022-07-01T05:39:16;26.60;;;23.80;;
67074;SDS011;53990;50.334;18.640;2022-07-01T05:41:43;33.60;;;25.70;;
67074;SDS011;53990;50.334;18.640;2022-07-01T05:44:09;26.70;;;22.30;;
67074;SDS011;53990;50.334;18.640;2022-07-01T05:46:39;25.20;;;22.00;;
67074;SDS011;53990;50.334;18.640;2022-07-01T05:49:05;28.10;;;22.00;;
67074;SDS011;53990;50.334;18.640;2022-07-01T05:51:32;27.30;;;21.80;;
67074;SDS011;53990;50.334;18.640;2022-07-01T05:53:58;23.00;;;20.00;;
67074;SDS011;53990;50.334;18.640;2022-07-01T05:56:25;27.30;;;19.40;;
67074;SDS011;53990;50.334;18.640;2022-07-01T05:58:53;24.80;;;20.00;;
67074;SDS011;53990;50.334;18.640;2022-07-01T06:01:20;25.80;;;19.80;;
67074;SDS011;53990;50.334;18.640;2022-07-01T06:03:47;29.00;;;20.90;;
67074;SDS011;53990;50.334;18.640;2022-07-01T06:06:13;29.00;;;21.80;;
67074;SDS011;53990;50.334;18.640;2022-07-01T06:08:40;27.70;;;21.20;;
67074;SDS011;53990;50.334;18.640;2022-07-01T06:11:06;24.40;;;20.60;;
67074;SDS011;53990;50.334;18.640;2022-07-01T06:13:33;26.20;;;21.40;;
67074;SDS011;53990;50.334;18.640;2022-07-01T06:15:59;25.30;;;21.60;;
67074;SDS011;53990;50.334;18.640;2022-07-01T06:18:26;26.30;;;21.30;;
67074;SDS011;53990;50.334;18.640;2022-07-01T06:20:53;31.60;;;21.40;;
67074;SDS011;53990;50.334;18.640;2022-07-01T06:23:19;27.60;;;21.10;;
67074;SDS011;53990;50.334;18.640;2022-07-01T06:25:46;25.20;;;21.60;;
67074;SDS011;53990;50.334;18.640;2022-07-01T06:28:14;27.30;;;20.60;;
67074;SDS011;53990;50.334;18.640;2022-07-01T06:30:40;24.50;;;21.10;;
67074;SDS011;53990;50.334;18.640;2022-07-01T06:33:10;26.70;;;20.20;;
67074;SDS011;53990;50.334;18.640;2022-07-01T06:35:38;22.00;;;19.70;;
67074;SDS011;53990;50.334;18.640;2022-07-01T06:38:04;24.70;;;19.40;;
67074;SDS011;53990;50.334;18.640;2022-07-01T06:40:31;24.70;;;18.40;;
67074;SDS011;53990;50.334;18.640;2022-07-01T06:42:57;24.20;;;18.10;;
67074;SDS011;53990;50.334;18.640;2022-07-01T06:45:24;19.80;;;16.60;;
67074;SDS011;53990;50.334;18.640;2022-07-01T06:47:50;20.30;;;16.40;;
67074;SDS011;53990;50.334;18.640;2022-07-01T06:50:17;24.70;;;17.50;;
67074;SDS011;53990;50.334;18.640;2022-07-01T06:52:43;25.70;;;17.60;;
67074;SDS011;53990;50.334;18.640;2022-07-01T06:55:10;22.00;;;16.20;;
67074;SDS011;53990;50.334;18.640;2022-07-01T06:57:37;26.60;;;18.00;;
67074;SDS011;53990;50.334;18.640;2022-07-01T07:00:09;25.10;;;17.40;;
67074;SDS011;53990;50.334;18.640;2022-07-01T07:02:56;22.90;;;17.80;;
67074;SDS011;53990;50.334;18.640;2022-07-01T07:06:22;20.60;;;16.10;;
67074;SDS011;53990;50.334;18.640;2022-07-01T07:09:49;28.70;;;16.80;;
67074;SDS011;53990;50.334;18.640;2022-07-01T07:12:55;20.40;;;13.70;;
67074;SDS011;53990;50.334;18.640;2022-07-01T07:16:08;18.20;;;13.20;;
67074;SDS011;53990;50.334;18.640;2022-07-01T07:19:35;19.80;;;13.40;;
67074;SDS011;53990;50.334;18.640;2022-07-01T07:22:41;23.70;;;14.70;;
67074;SDS011;53990;50.334;18.640;2022-07-01T07:25:28;29.20;;;15.80;;
67074;SDS011;53990;50.334;18.640;2022-07-01T07:28:43;19.00;;;14.00;;
67074;SDS011;53990;50.334;18.640;2022-07-01T07:31:46;22.00;;;14.50;;
67074;SDS011;53990;50.334;18.640;2022-07-01T07:35:32;19.50;;;15.50;;
67074;SDS011;53990;50.334;18.640;2022-07-01T07:39:14;15.80;;;13.30;;
67074;SDS011;53990;50.334;18.640;2022-07-01T07:42:50;23.40;;;15.70;;
67074;SDS011;53990;50.334;18.640;2022-07-01T07:45:37;30.60;;;16.50;;
67074;SDS011;53990;50.334;18.640;2022-07-01T07:52:11;19.80;;;15.60;;
67074;SDS011;53990;50.334;18.640;2022-07-01T07:55:38;25.80;;;15.10;;
67074;SDS011;53990;50.334;18.640;2022-07-01T08:02:35;27.90;;;17.10;;
67074;SDS011;53990;50.334;18.640;2022-07-01T08:05:02;19.40;;;14.00;;
67074;SDS011;53990;50.334;18.640;2022-07-01T08:07:28;23.20;;;14.30;;
67074;SDS011;53990;50.334;18.640;2022-07-01T08:09:55;21.30;;;13.70;;
67074;SDS011;53990;50.334;18.640;2022-07-01T08:12:22;15.80;;;12.70;;
67074;SDS011;53990;50.334;18.640;2022-07-01T08:14:48;14.70;;;13.10;;
67074;SDS011;53990;50.334;18.640;2022-07-01T08:17:15;14.50;;;13.10;;
67074;SDS011;53990;50.334;18.640;2022-07-01T08:19:41;14.90;;;13.30;;
67074;SDS011;53990;50.334;18.640;2022-07-01T08:22:08;15.20;;;12.80;;
67074;SDS011;53990;50.334;18.640;2022-07-01T08:24:34;14.00;;;12.50;;
67074;SDS011;53990;50.334;18.640;2022-07-01T08:27:01;16.80;;;12.70;;
67074;SDS011;53990;50.334;18.640;2022-07-01T08:29:30;17.30;;;13.70;;
67074;SDS011;53990;50.334;18.640;2022-07-01T08:31:56;16.40;;;13.10;;
67074;SDS011;53990;50.334;18.640;2022-07-01T08:34:23;14.80;;;12.60;;
67074;SDS011;53990;50.334;18.640;2022-07-01T08:36:49;19.30;;;12.90;;
67074;SDS011;53990;50.334;18.640;2022-07-01T08:39:16;14.00;;;11.30;;
67074;SDS011;53990;50.334;18.640;2022-07-01T08:41:42;13.10;;;10.70;;
67074;SDS011;53990;50.334;18.640;2022-07-01T08:44:10;18.30;;;11.60;;
67074;SDS011;53990;50.334;18.640;2022-07-01T08:46:36;13.60;;;10.00;;
67074;SDS011;53990;50.334;18.640;2022-07-01T08:49:03;14.00;;;10.60;;
67074;SDS011;53990;50.334;18.640;2022-07-01T08:51:29;17.30;;;11.80;;
67074;SDS011;53990;50.334;18.640;2022-07-01T08:53:56;17.00;;;11.20;;
67074;SDS011;53990;50.334;18.640;2022-07-01T08:56:22;17.90;;;12.60;;
67074;SDS011;53990;50.334;18.640;2022-07-01T08:59:11;13.10;;;11.10;;
67074;SDS011;53990;50.334;18.640;2022-07-01T09:01:40;15.50;;;11.60;;
67074;SDS011;53990;50.334;18.640;2022-07-01T09:04:21;15.90;;;10.70;;
67074;SDS011;53990;50.334;18.640;2022-07-01T09:06:48;11.80;;;9.40;;
67074;SDS011;53990;50.334;18.640;2022-07-01T09:09:18;16.60;;;10.50;;
67074;SDS011;53990;50.334;18.640;2022-07-01T09:11:48;16.30;;;10.50;;
67074;SDS011;53990;50.334;18.640;2022-07-01T09:14:29;21.40;;;11.90;;
67074;SDS011;53990;50.334;18.640;2022-07-01T09:17:04;12.40;;;9.30;;
67074;SDS011;53990;50.334;18.640;2022-07-01T09:19:36;18.20;;;9.60;;
67074;SDS011;53990;50.334;18.640;2022-07-01T09:22:03;14.20;;;8.80;;
67074;SDS011;53990;50.334;18.640;2022-07-01T09:24:41;13.00;;;8.80;;
67074;SDS011;53990;50.334;18.640;2022-07-01T09:27:11;14.10;;;10.00;;
67074;SDS011;53990;50.334;18.640;2022-07-01T09:29:44;15.60;;;8.90;;
67074;SDS011;53990;50.334;18.640;2022-07-01T09:32:13;14.10;;;9.10;;
67074;SDS011;53990;50.334;18.640;2022-07-01T09:34:53;15.00;;;10.40;;
67074;SDS011;53990;50.334;18.640;2022-07-01T09:37:22;15.10;;;10.30;;
67074;SDS011;53990;50.334;18.640;2022-07-01T09:39:56;15.60;;;9.70;;
67074;SDS011;53990;50.334;18.640;2022-07-01T09:42:25;25.80;;;14.60;;
67074;SDS011;53990;50.334;18.640;2022-07-01T09:44:56;16.10;;;10.70;;
67074;SDS011;53990;50.334;18.640;2022-07-01T09:47:24;18.30;;;11.90;;
67074;SDS011;53990;50.334;18.640;2022-07-01T09:49:51;18.40;;;11.30;;
67074;SDS011;53990;50.334;18.640;2022-07-01T09:52:18;16.30;;;11.20;;
67074;SDS011;53990;50.334;18.640;2022-07-01T09:54:45;18.90;;;11.50;;
67074;SDS011;53990;50.334;18.640;2022-07-01T09:57:17;20.70;;;11.50;;
67074;SDS011;53990;50.334;18.640;2022-07-01T09:59:44;17.60;;;11.10;;
67074;SDS011;53990;50.334;18.640;2022-07-01T10:02:11;18.60;;;11.10;;
67074;SDS011;53990;50.334;18.640;2022-07-01T10:04:40;19.10;;;11.10;;
67074;SDS011;53990;50.334;18.640;2022-07-01T10:10:09;16.10;;;8.20;;
67074;SDS011;53990;50.334;18.640;2022-07-01T10:12:42;18.00;;;9.50;;
67074;SDS011;53990;50.334;18.640;2022-07-01T10:15:11;17.50;;;8.00;;
67074;SDS011;53990;50.334;18.640;2022-07-01T10:17:43;14.80;;;8.60;;
67074;SDS011;53990;50.334;18.640;2022-07-01T10:20:14;14.10;;;7.90;;
67074;SDS011;53990;50.334;18.640;2022-07-01T10:22:43;13.30;;;7.20;;
67074;SDS011;53990;50.334;18.640;2022-07-01T10:25:35;12.20;;;7.40;;
67074;SDS011;53990;50.334;18.640;2022-07-01T10:28:43;11.10;;;7.40;;
67074;SDS011;53990;50.334;18.640;2022-07-01T10:31:11;9.50;;;6.50;;
67074;SDS011;53990;50.334;18.640;2022-07-01T10:44:10;13.50;;;6.90;;
67074;SDS011;53990;50.334;18.640;2022-07-01T10:49:08;9.00;;;5.80;;
67074;SDS011;53990;50.334;18.640;2022-07-01T10:51:49;8.80;;;5.50;;
67074;SDS011;53990;50.334;18.640;2022-07-01T10:59:53;11.70;;;5.90;;
67074;SDS011;53990;50.334;18.640;2022-07-01T11:02:25;11.20;;;5.80;;
67074;SDS011;53990;50.334;18.640;2022-07-01T11:04:54;12.50;;;6.30;;
67074;SDS011;53990;50.334;18.640;2022-07-01T11:07:24;8.70;;;5.80;;
67074;SDS011;53990;50.334;18.640;2022-07-01T11:09:51;9.10;;;4.80;;
67074;SDS011;53990;50.334;18.640;2022-07-01T11:12:20;9.60;;;4.30;;
67074;SDS011;53990;50.334;18.640;2022-07-01T11:14:46;10.20;;;4.30;;
67074;SDS011;53990;50.334;18.640;2022-07-01T11:17:13;8.10;;;3.90;;
67074;SDS011;53990;50.334;18.640;2022-07-01T11:19:47;8.50;;;4.00;;
67074;SDS011;53990;50.334;18.640;2022-07-01T11:22:21;7.50;;;3.40;;
67074;SDS011;53990;50.334;18.640;2022-07-01T11:24:55;5.90;;;3.30;;
67074;SDS011;53990;50.334;18.640;2022-07-01T11:27:22;6.50;;;3.60;;
67074;SDS011;53990;50.334;18.640;2022-07-01T11:29:54;8.20;;;4.20;;
67074;SDS011;53990;50.334;18.640;2022-07-01T11:37:22;6.10;;;3.90;;
67074;SDS011;53990;50.334;18.640;2022-07-01T11:40:11;7.00;;;3.90;;
67074;SDS011;53990;50.334;18.640;2022-07-01T11:42:39;5.70;;;3.80;;
67074;SDS011;53990;50.334;18.640;2022-07-01T11:45:07;5.70;;;3.70;;
67074;SDS011;53990;50.334;18.640;2022-07-01T11:47:34;6.30;;;3.70;;
67074;SDS011;53990;50.334;18.640;2022-07-01T11:50:00;7.00;;;4.30;;
67074;SDS011;53990;50.334;18.640;2022-07-01T11:52:27;7.40;;;4.10;;
67074;SDS011;53990;50.334;18.640;2022-07-01T11:54:55;11.00;;;4.70;;
67074;SDS011;53990;50.334;18.640;2022-07-01T11:57:25;8.90;;;4.30;;
67074;SDS011;53990;50.334;18.640;2022-07-01T11:59:56;6.40;;;4.50;;
67074;SDS011;53990;50.334;18.640;2022-07-01T12:02:23;4.80;;;4.00;;
67074;SDS011;53990;50.334;18.640;2022-07-01T12:04:51;7.90;;;4.60;;
67074;SDS011;53990;50.334;18.640;2022-07-01T12:07:20;7.50;;;4.50;;
67074;SDS011;53990;50.334;18.640;2022-07-01T12:09:48;6.80;;;4.00;;
67074;SDS011;53990;50.334;18.640;2022-07-01T12:12:17;5.70;;;4.20;;
67074;SDS011;53990;50.334;18.640;2022-07-01T12:14:52;6.30;;;4.70;;
67074;SDS011;53990;50.334;18.640;2022-07-01T12:17:20;6.40;;;5.00;;
67074;SDS011;53990;50.334;18.640;2022-07-01T12:19:47;7.50;;;5.30;;
67074;SDS011;53990;50.334;18.640;2022-07-01T12:22:19;7.30;;;5.00;;
67074;SDS011;53990;50.334;18.640;2022-07-01T12:24:47;9.20;;;4.80;;
67074;SDS011;53990;50.334;18.640;2022-07-01T12:27:14;10.10;;;5.40;;
67074;SDS011;53990;50.334;18.640;2022-07-01T12:32:22;7.70;;;5.00;;
67074;SDS011;53990;50.334;18.640;2022-07-01T12:34:53;8.80;;;5.10;;
67074;SDS011;53990;50.334;18.640;2022-07-01T12:37:27;7.80;;;5.60;;
67074;SDS011;53990;50.334;18.640;2022-07-01T12:40:19;8.00;;;5.80;;
67074;SDS011;53990;50.334;18.640;2022-07-01T12:42:46;10.50;;;6.20;;
67074;SDS011;53990;50.334;18.640;2022-07-01T12:45:15;7.20;;;6.20;;
67074;SDS011;53990;50.334;18.640;2022-07-01T12:47:44;10.40;;;6.40;;
67074;SDS011;53990;50.334;18.640;2022-07-01T12:50:22;9.30;;;6.70;;
67074;SDS011;53990;50.334;18.640;2022-07-01T12:55:41;9.30;;;6.40;;
67074;SDS011;53990;50.334;18.640;2022-07-01T12:58:10;8.60;;;6.80;;
67074;SDS011;53990;50.334;18.640;2022-07-01T13:00:38;8.80;;;6.80;;
67074;SDS011;53990;50.334;18.640;2022-07-01T13:03:05;9.20;;;6.90;;
67074;SDS011;53990;50.334;18.640;2022-07-01T13:05:34;9.10;;;6.30;;
67074;SDS011;53990;50.334;18.640;2022-07-01T13:08:02;10.60;;;6.30;;
67074;SDS011;53990;50.334;18.640;2022-07-01T13:10:29;7.40;;;5.90;;
67074;SDS011;53990;50.334;18.640;2022-07-01T13:12:56;7.80;;;7.00;;
67074;SDS011;53990;50.334;18.640;2022-07-01T13:15:23;7.50;;;6.70;;
67074;SDS011;53990;50.334;18.640;2022-07-01T13:17:49;8.50;;;6.80;;
67074;SDS011;53990;50.334;18.640;2022-07-01T13:20:17;8.60;;;6.70;;
67074;SDS011;53990;50.334;18.640;2022-07-01T13:22:44;8.30;;;7.00;;
67074;SDS011;53990;50.334;18.640;2022-07-01T13:25:11;11.20;;;7.30;;
67074;SDS011;53990;50.334;18.640;2022-07-01T13:27:38;9.60;;;6.70;;
67074;SDS011;53990;50.334;18.640;2022-07-01T13:30:07;11.00;;;7.40;;
67074;SDS011;53990;50.334;18.640;2022-07-01T13:32:36;9.00;;;7.00;;
67074;SDS011;53990;50.334;18.640;2022-07-01T13:35:03;10.40;;;7.10;;
67074;SDS011;53990;50.334;18.640;2022-07-01T13:37:30;10.10;;;7.20;;
67074;SDS011;53990;50.334;18.640;2022-07-01T13:39:56;10.50;;;7.20;;
67074;SDS011;53990;50.334;18.640;2022-07-01T13:42:23;10.10;;;7.20;;
67074;SDS011;53990;50.334;18.640;2022-07-01T13:44:49;9.30;;;6.90;;
67074;SDS011;53990;50.334;18.640;2022-07-01T13:47:19;8.70;;;6.90;;
67074;SDS011;53990;50.334;18.640;2022-07-01T13:49:58;8.80;;;6.90;;
67074;SDS011;53990;50.334;18.640;2022-07-01T13:52:31;9.60;;;7.10;;
67074;SDS011;53990;50.334;18.640;2022-07-01T13:54:58;9.20;;;7.20;;
67074;SDS011;53990;50.334;18.640;2022-07-01T13:57:25;15.00;;;7.60;;
67074;SDS011;53990;50.334;18.640;2022-07-01T13:59:52;9.30;;;7.70;;
67074;SDS011;53990;50.334;18.640;2022-07-01T14:02:19;11.20;;;7.50;;
67074;SDS011;53990;50.334;18.640;2022-07-01T14:04:47;8.20;;;7.20;;
67074;SDS011;53990;50.334;18.640;2022-07-01T14:07:14;8.30;;;7.00;;
67074;SDS011;53990;50.334;18.640;2022-07-01T14:09:40;10.80;;;8.00;;
67074;SDS011;53990;50.334;18.640;2022-07-01T14:12:10;8.90;;;7.60;;
67074;SDS011;53990;50.334;18.640;2022-07-01T14:14:36;8.80;;;6.80;;
67074;SDS011;53990;50.334;18.640;2022-07-01T14:17:03;7.30;;;6.60;;
67074;SDS011;53990;50.334;18.640;2022-07-01T14:19:30;9.40;;;7.20;;
67074;SDS011;53990;50.334;18.640;2022-07-01T14:21:59;10.90;;;7.40;;
67074;SDS011;53990;50.334;18.640;2022-07-01T14:24:26;9.00;;;7.30;;
67074;SDS011;53990;50.334;18.640;2022-07-01T14:26:53;8.60;;;6.80;;
67074;SDS011;53990;50.334;18.640;2022-07-01T14:29:19;10.80;;;7.50;;
67074;SDS011;53990;50.334;18.640;2022-07-01T14:31:46;9.40;;;7.50;;
67074;SDS011;53990;50.334;18.640;2022-07-01T14:34:12;9.80;;;7.10;;
67074;SDS011;53990;50.334;18.640;2022-07-01T14:36:39;9.20;;;7.30;;
67074;SDS011;53990;50.334;18.640;2022-07-01T14:39:05;9.40;;;7.70;;
67074;SDS011;53990;50.334;18.640;2022-07-01T14:41:33;9.80;;;7.60;;
67074;SDS011;53990;50.334;18.640;2022-07-01T14:43:59;9.80;;;7.60;;
67074;SDS011;53990;50.334;18.640;2022-07-01T14:46:26;9.60;;;7.00;;
67074;SDS011;53990;50.334;18.640;2022-07-01T14:48:52;11.70;;;8.20;;
67074;SDS011;53990;50.334;18.640;2022-07-01T14:51:19;12.80;;;7.80;;
67074;SDS011;53990;50.334;18.640;2022-07-01T14:53:47;10.40;;;7.50;;
67074;SDS011;53990;50.334;18.640;2022-07-01T14:56:13;11.20;;;7.70;;
67074;SDS011;53990;50.334;18.640;2022-07-01T14:58:40;9.10;;;7.70;;
67074;SDS011;53990;50.334;18.640;2022-07-01T15:01:09;9.80;;;7.60;;
67074;SDS011;53990;50.334;18.640;2022-07-01T15:03:36;10.60;;;7.80;;
67074;SDS011;53990;50.334;18.640;2022-07-01T15:06:03;12.70;;;7.90;;
67074;SDS011;53990;50.334;18.640;2022-07-01T15:08:29;12.90;;;8.20;;
67074;SDS011;53990;50.334;18.640;2022-07-01T15:10:56;12.20;;;8.80;;
67074;SDS011;53990;50.334;18.640;2022-07-01T15:13:32;10.00;;;8.40;;
67074;SDS011;53990;50.334;18.640;2022-07-01T15:16:01;11.40;;;9.20;;